sensor_id;sensor_type;location;lat;lon;timestamp;P1;durP1;ratioP1;P2;durP2;ratioP2
64061;SDS011;50308;47.438;-1.528;2023-08-24T00:01:36;10.65;;;7.20;;
64061;SDS011;50308;47.438;-1.528;2023-08-24T00:04:01;13.65;;;7.63;;
64061;SDS011;50308;47.438;-1.528;2023-08-24T00:06:27;13.23;;;7.75;;
64061;SDS011;50308;47.438;-1.528;2023-08-24T00:08:53;11.55;;;7.50;;
64061;SDS011;50308;47.438;-1.528;2023-08-24T00:11:18;12.70;;;8.13;;
64061;SDS011;50308;47.438;-1.528;2023-08-24T00:13:44;10.43;;;8.13;;
64061;SDS011;50308;47.438;-1.528;2023-08-24T00:16:19;11.48;;;7.50;;
64061;SDS011;50308;47.438;-1.528;2023-08-24T00:18:45;11.13;;;7.47;;
64061;SDS011;50308;47.438;-1.528;2023-08-24T00:21:13;11.05;;;7.97;;
64061;SDS011;50308;47.438;-1.528;2023-08-24T00:26:07;10.70;;;7.97;;
64061;SDS011;50308;47.438;-1.528;2023-08-24T00:28:33;11.40;;;8.20;;
64061;SDS011;50308;47.438;-1.528;2023-08-24T00:30:59;9.52;;;7.28;;
64061;SDS011;50308;47.438;-1.528;2023-08-24T00:33:24;9.88;;;7.70;;
64061;SDS011;50308;47.438;-1.528;2023-08-24T00:35:50;15.60;;;8.05;;
64061;SDS011;50308;47.438;-1.528;2023-08-24T00:38:15;9.63;;;7.78;;
64061;SDS011;50308;47.438;-1.528;2023-08-24T00:40:42;11.50;;;7.47;;
64061;SDS011;50308;47.438;-1.528;2023-08-24T00:43:08;11.75;;;8.38;;
64061;SDS011;50308;47.438;-1.528;2023-08-24T00:45:34;12.00;;;7.35;;
64061;SDS011;50308;47.438;-1.528;2023-08-24T00:48:01;12.75;;;7.57;;
64061;SDS011;50308;47.438;-1.528;2023-08-24T00:50:27;10.07;;;7.63;;
64061;SDS011;50308;47.438;-1.528;2023-08-24T00:52:53;14.55;;;8.40;;
64061;SDS011;50308;47.438;-1.528;2023-08-24T00:55:19;9.40;;;7.43;;
64061;SDS011;50308;47.438;-1.528;2023-08-24T00:57:45;14.55;;;8.07;;
64061;SDS011;50308;47.438;-1.528;2023-08-24T01:00:13;9.88;;;7.80;;
64061;SDS011;50308;47.438;-1.528;2023-08-24T01:02:39;11.35;;;7.97;;
64061;SDS011;50308;47.438;-1.528;2023-08-24T01:05:05;12.68;;;7.75;;
64061;SDS011;50308;47.438;-1.528;2023-08-24T01:07:35;12.27;;;8.10;;
64061;SDS011;50308;47.438;-1.528;2023-08-24T01:10:04;18.67;;;8.25;;
64061;SDS011;50308;47.438;-1.528;2023-08-24T01:13:15;11.57;;;7.93;;
64061;SDS011;50308;47.438;-1.528;2023-08-24T01:16:04;9.52;;;7.78;;
64061;SDS011;50308;47.438;-1.528;2023-08-24T01:18:35;11.27;;;7.93;;
64061;SDS011;50308;47.438;-1.528;2023-08-24T01:21:01;11.25;;;7.90;;
64061;SDS011;50308;47.438;-1.528;2023-08-24T01:26:33;12.73;;;8.02;;
64061;SDS011;50308;47.438;-1.528;2023-08-24T01:28:59;11.40;;;7.88;;
64061;SDS011;50308;47.438;-1.528;2023-08-24T01:31:26;12.07;;;8.18;;
64061;SDS011;50308;47.438;-1.528;2023-08-24T01:33:51;11.52;;;8.27;;
64061;SDS011;50308;47.438;-1.528;2023-08-24T01:36:17;11.15;;;7.88;;
64061;SDS011;50308;47.438;-1.528;2023-08-24T01:38:43;11.13;;;8.23;;
64061;SDS011;50308;47.438;-1.528;2023-08-24T01:41:17;15.20;;;8.43;;
64061;SDS011;50308;47.438;-1.528;2023-08-24T01:43:49;12.95;;;7.90;;
64061;SDS011;50308;47.438;-1.528;2023-08-24T01:46:21;16.60;;;7.40;;
64061;SDS011;50308;47.438;-1.528;2023-08-24T01:48:47;12.30;;;7.93;;
64061;SDS011;50308;47.438;-1.528;2023-08-24T01:51:13;12.10;;;8.15;;
64061;SDS011;50308;47.438;-1.528;2023-08-24T01:53:40;10.98;;;8.00;;
64061;SDS011;50308;47.438;-1.528;2023-08-24T01:56:08;10.20;;;7.50;;
64061;SDS011;50308;47.438;-1.528;2023-08-24T01:58:35;9.82;;;7.45;;
64061;SDS011;50308;47.438;-1.528;2023-08-24T02:01:00;11.30;;;8.02;;
64061;SDS011;50308;47.438;-1.528;2023-08-24T02:03:26;11.82;;;8.02;;
64061;SDS011;50308;47.438;-1.528;2023-08-24T02:05:52;11.80;;;8.55;;
64061;SDS011;50308;47.438;-1.528;2023-08-24T02:08:17;12.95;;;7.60;;
64061;SDS011;50308;47.438;-1.528;2023-08-24T02:10:43;12.88;;;7.82;;
64061;SDS011;50308;47.438;-1.528;2023-08-24T02:13:09;10.10;;;8.27;;
64061;SDS011;50308;47.438;-1.528;2023-08-24T02:15:34;11.07;;;7.90;;
64061;SDS011;50308;47.438;-1.528;2023-08-24T02:18:00;11.38;;;7.90;;
64061;SDS011;50308;47.438;-1.528;2023-08-24T02:20:25;17.15;;;8.23;;
64061;SDS011;50308;47.438;-1.528;2023-08-24T02:22:51;13.32;;;8.25;;
64061;SDS011;50308;47.438;-1.528;2023-08-24T02:25:17;13.02;;;8.63;;
64061;SDS011;50308;47.438;-1.528;2023-08-24T02:27:43;12.57;;;7.68;;
64061;SDS011;50308;47.438;-1.528;2023-08-24T02:30:08;11.88;;;8.65;;
64061;SDS011;50308;47.438;-1.528;2023-08-24T02:32:34;11.43;;;8.10;;
64061;SDS011;50308;47.438;-1.528;2023-08-24T02:35:00;13.60;;;8.27;;
64061;SDS011;50308;47.438;-1.528;2023-08-24T02:37:26;12.98;;;8.35;;
64061;SDS011;50308;47.438;-1.528;2023-08-24T02:39:52;11.55;;;7.82;;
64061;SDS011;50308;47.438;-1.528;2023-08-24T02:42:18;12.23;;;8.15;;
64061;SDS011;50308;47.438;-1.528;2023-08-24T02:44:43;13.20;;;8.38;;
64061;SDS011;50308;47.438;-1.528;2023-08-24T02:47:09;11.73;;;8.43;;
64061;SDS011;50308;47.438;-1.528;2023-08-24T02:49:34;17.70;;;8.20;;
64061;SDS011;50308;47.438;-1.528;2023-08-24T02:52:00;10.52;;;7.63;;
64061;SDS011;50308;47.438;-1.528;2023-08-24T02:54:26;15.65;;;8.68;;
64061;SDS011;50308;47.438;-1.528;2023-08-24T02:56:51;12.77;;;8.95;;
64061;SDS011;50308;47.438;-1.528;2023-08-24T02:59:18;10.18;;;7.60;;
64061;SDS011;50308;47.438;-1.528;2023-08-24T03:01:44;11.32;;;7.93;;
64061;SDS011;50308;47.438;-1.528;2023-08-24T03:04:09;11.32;;;8.07;;
64061;SDS011;50308;47.438;-1.528;2023-08-24T03:06:35;10.77;;;8.27;;
64061;SDS011;50308;47.438;-1.528;2023-08-24T03:09:01;11.43;;;8.05;;
64061;SDS011;50308;47.438;-1.528;2023-08-24T03:11:29;10.75;;;8.07;;
64061;SDS011;50308;47.438;-1.528;2023-08-24T03:13:54;12.77;;;7.60;;
64061;SDS011;50308;47.438;-1.528;2023-08-24T03:16:20;10.95;;;8.10;;
64061;SDS011;50308;47.438;-1.528;2023-08-24T03:18:46;11.93;;;7.97;;
64061;SDS011;50308;47.438;-1.528;2023-08-24T03:21:11;11.38;;;8.15;;
64061;SDS011;50308;47.438;-1.528;2023-08-24T03:23:37;9.88;;;8.23;;
64061;SDS011;50308;47.438;-1.528;2023-08-24T03:26:03;13.02;;;7.40;;
64061;SDS011;50308;47.438;-1.528;2023-08-24T03:28:28;12.18;;;7.90;;
64061;SDS011;50308;47.438;-1.528;2023-08-24T03:30:54;12.57;;;8.75;;
64061;SDS011;50308;47.438;-1.528;2023-08-24T03:33:20;10.43;;;7.78;;
64061;SDS011;50308;47.438;-1.528;2023-08-24T03:35:46;10.40;;;7.57;;
64061;SDS011;50308;47.438;-1.528;2023-08-24T03:38:13;10.05;;;8.00;;
64061;SDS011;50308;47.438;-1.528;2023-08-24T03:40:39;15.25;;;8.30;;
64061;SDS011;50308;47.438;-1.528;2023-08-24T03:43:04;10.13;;;7.53;;
64061;SDS011;50308;47.438;-1.528;2023-08-24T03:45:30;9.90;;;7.40;;
64061;SDS011;50308;47.438;-1.528;2023-08-24T03:47:56;10.20;;;7.70;;
64061;SDS011;50308;47.438;-1.528;2023-08-24T03:50:21;14.20;;;8.10;;
64061;SDS011;50308;47.438;-1.528;2023-08-24T03:52:50;12.82;;;8.57;;
64061;SDS011;50308;47.438;-1.528;2023-08-24T03:55:16;13.13;;;8.35;;
64061;SDS011;50308;47.438;-1.528;2023-08-24T03:57:42;9.52;;;7.20;;
64061;SDS011;50308;47.438;-1.528;2023-08-24T04:00:08;10.95;;;7.60;;
64061;SDS011;50308;47.438;-1.528;2023-08-24T04:02:45;11.95;;;8.15;;
64061;SDS011;50308;47.438;-1.528;2023-08-24T04:05:11;11.00;;;7.90;;
64061;SDS011;50308;47.438;-1.528;2023-08-24T04:07:37;9.20;;;7.70;;
64061;SDS011;50308;47.438;-1.528;2023-08-24T04:10:04;9.77;;;7.30;;
64061;SDS011;50308;47.438;-1.528;2023-08-24T04:12:31;9.73;;;7.28;;
64061;SDS011;50308;47.438;-1.528;2023-08-24T04:14:57;9.38;;;6.88;;
64061;SDS011;50308;47.438;-1.528;2023-08-24T04:17:23;8.90;;;7.18;;
64061;SDS011;50308;47.438;-1.528;2023-08-24T04:19:49;12.15;;;7.72;;
64061;SDS011;50308;47.438;-1.528;2023-08-24T04:22:15;10.93;;;7.68;;
64061;SDS011;50308;47.438;-1.528;2023-08-24T04:24:42;10.52;;;7.72;;
64061;SDS011;50308;47.438;-1.528;2023-08-24T04:27:08;9.27;;;7.50;;
64061;SDS011;50308;47.438;-1.528;2023-08-24T04:29:33;10.85;;;7.35;;
64061;SDS011;50308;47.438;-1.528;2023-08-24T04:31:59;8.85;;;7.25;;
64061;SDS011;50308;47.438;-1.528;2023-08-24T04:34:24;11.95;;;7.40;;
64061;SDS011;50308;47.438;-1.528;2023-08-24T04:36:51;9.30;;;7.55;;
64061;SDS011;50308;47.438;-1.528;2023-08-24T04:39:17;8.88;;;7.22;;
64061;SDS011;50308;47.438;-1.528;2023-08-24T04:41:43;10.70;;;7.43;;
64061;SDS011;50308;47.438;-1.528;2023-08-24T04:44:10;10.02;;;7.63;;
64061;SDS011;50308;47.438;-1.528;2023-08-24T04:46:35;11.23;;;7.07;;
64061;SDS011;50308;47.438;-1.528;2023-08-24T04:49:01;9.75;;;7.10;;
64061;SDS011;50308;47.438;-1.528;2023-08-24T04:51:28;13.82;;;7.95;;
64061;SDS011;50308;47.438;-1.528;2023-08-24T04:53:54;12.07;;;7.18;;
64061;SDS011;50308;47.438;-1.528;2023-08-24T04:56:19;8.25;;;7.07;;
64061;SDS011;50308;47.438;-1.528;2023-08-24T04:58:55;11.52;;;7.60;;
64061;SDS011;50308;47.438;-1.528;2023-08-24T05:01:25;9.82;;;7.32;;
64061;SDS011;50308;47.438;-1.528;2023-08-24T05:03:52;13.25;;;7.63;;
64061;SDS011;50308;47.438;-1.528;2023-08-24T05:06:19;13.98;;;7.65;;
64061;SDS011;50308;47.438;-1.528;2023-08-24T05:08:45;10.25;;;8.15;;
64061;SDS011;50308;47.438;-1.528;2023-08-24T05:11:12;14.38;;;7.50;;
64061;SDS011;50308;47.438;-1.528;2023-08-24T05:13:38;11.85;;;7.97;;
64061;SDS011;50308;47.438;-1.528;2023-08-24T05:16:08;12.32;;;7.45;;
64061;SDS011;50308;47.438;-1.528;2023-08-24T05:18:34;9.10;;;6.80;;
64061;SDS011;50308;47.438;-1.528;2023-08-24T05:21:01;11.55;;;8.15;;
64061;SDS011;50308;47.438;-1.528;2023-08-24T05:23:33;10.82;;;7.43;;
64061;SDS011;50308;47.438;-1.528;2023-08-24T05:26:00;10.55;;;6.90;;
64061;SDS011;50308;47.438;-1.528;2023-08-24T05:28:26;9.80;;;7.32;;
64061;SDS011;50308;47.438;-1.528;2023-08-24T05:30:53;10.60;;;7.75;;
64061;SDS011;50308;47.438;-1.528;2023-08-24T05:33:19;12.68;;;7.63;;
64061;SDS011;50308;47.438;-1.528;2023-08-24T05:35:46;12.25;;;7.63;;
64061;SDS011;50308;47.438;-1.528;2023-08-24T05:38:12;11.80;;;7.28;;
64061;SDS011;50308;47.438;-1.528;2023-08-24T05:40:39;11.15;;;6.88;;
64061;SDS011;50308;47.438;-1.528;2023-08-24T05:43:06;10.90;;;6.90;;
64061;SDS011;50308;47.438;-1.528;2023-08-24T05:45:32;11.07;;;7.75;;
64061;SDS011;50308;47.438;-1.528;2023-08-24T05:47:57;9.93;;;7.72;;
64061;SDS011;50308;47.438;-1.528;2023-08-24T05:50:23;9.18;;;7.45;;
64061;SDS011;50308;47.438;-1.528;2023-08-24T05:52:49;13.27;;;7.57;;
64061;SDS011;50308;47.438;-1.528;2023-08-24T05:55:15;12.80;;;6.97;;
64061;SDS011;50308;47.438;-1.528;2023-08-24T05:57:41;8.65;;;6.70;;
64061;SDS011;50308;47.438;-1.528;2023-08-24T06:00:06;10.77;;;7.18;;
64061;SDS011;50308;47.438;-1.528;2023-08-24T06:02:35;10.88;;;7.70;;
64061;SDS011;50308;47.438;-1.528;2023-08-24T06:05:01;12.65;;;7.70;;
64061;SDS011;50308;47.438;-1.528;2023-08-24T06:07:28;9.98;;;6.88;;
64061;SDS011;50308;47.438;-1.528;2023-08-24T06:09:54;9.07;;;7.35;;
64061;SDS011;50308;47.438;-1.528;2023-08-24T06:12:21;10.85;;;6.90;;
64061;SDS011;50308;47.438;-1.528;2023-08-24T06:14:47;10.48;;;7.38;;
64061;SDS011;50308;47.438;-1.528;2023-08-24T06:17:13;13.55;;;7.50;;
64061;SDS011;50308;47.438;-1.528;2023-08-24T06:19:38;14.75;;;7.63;;
64061;SDS011;50308;47.438;-1.528;2023-08-24T06:22:04;12.00;;;8.13;;
64061;SDS011;50308;47.438;-1.528;2023-08-24T06:24:30;9.90;;;7.22;;
64061;SDS011;50308;47.438;-1.528;2023-08-24T06:26:56;13.02;;;7.57;;
64061;SDS011;50308;47.438;-1.528;2023-08-24T06:29:21;11.20;;;7.70;;
64061;SDS011;50308;47.438;-1.528;2023-08-24T06:31:47;11.80;;;7.65;;
64061;SDS011;50308;47.438;-1.528;2023-08-24T06:34:13;13.18;;;7.57;;
64061;SDS011;50308;47.438;-1.528;2023-08-24T06:36:38;10.65;;;7.70;;
64061;SDS011;50308;47.438;-1.528;2023-08-24T06:39:04;12.45;;;8.18;;
64061;SDS011;50308;47.438;-1.528;2023-08-24T06:41:36;11.73;;;7.85;;
64061;SDS011;50308;47.438;-1.528;2023-08-24T06:44:02;13.13;;;8.43;;
64061;SDS011;50308;47.438;-1.528;2023-08-24T06:46:28;13.93;;;8.20;;
64061;SDS011;50308;47.438;-1.528;2023-08-24T06:48:54;16.17;;;8.32;;
64061;SDS011;50308;47.438;-1.528;2023-08-24T06:51:20;13.75;;;8.32;;
64061;SDS011;50308;47.438;-1.528;2023-08-24T06:53:45;14.02;;;8.90;;
64061;SDS011;50308;47.438;-1.528;2023-08-24T06:56:14;15.98;;;8.57;;
64061;SDS011;50308;47.438;-1.528;2023-08-24T06:58:40;11.52;;;7.72;;
64061;SDS011;50308;47.438;-1.528;2023-08-24T07:01:06;14.95;;;8.38;;
64061;SDS011;50308;47.438;-1.528;2023-08-24T07:03:32;9.77;;;7.53;;
64061;SDS011;50308;47.438;-1.528;2023-08-24T07:05:58;11.70;;;7.90;;
64061;SDS011;50308;47.438;-1.528;2023-08-24T07:08:24;13.85;;;8.50;;
64061;SDS011;50308;47.438;-1.528;2023-08-24T07:10:50;13.05;;;8.35;;
64061;SDS011;50308;47.438;-1.528;2023-08-24T07:13:16;14.77;;;8.80;;
64061;SDS011;50308;47.438;-1.528;2023-08-24T07:15:42;20.58;;;9.38;;
64061;SDS011;50308;47.438;-1.528;2023-08-24T07:18:08;15.30;;;9.02;;
64061;SDS011;50308;47.438;-1.528;2023-08-24T07:20:34;14.00;;;8.70;;
64061;SDS011;50308;47.438;-1.528;2023-08-24T07:23:00;12.68;;;8.77;;
64061;SDS011;50308;47.438;-1.528;2023-08-24T07:25:26;14.25;;;9.10;;
64061;SDS011;50308;47.438;-1.528;2023-08-24T07:27:55;19.38;;;9.50;;
64061;SDS011;50308;47.438;-1.528;2023-08-24T07:30:27;13.80;;;9.27;;
64061;SDS011;50308;47.438;-1.528;2023-08-24T07:32:53;14.30;;;8.98;;
64061;SDS011;50308;47.438;-1.528;2023-08-24T07:35:19;16.50;;;9.52;;
64061;SDS011;50308;47.438;-1.528;2023-08-24T07:37:49;18.92;;;9.50;;
64061;SDS011;50308;47.438;-1.528;2023-08-24T07:40:15;17.58;;;9.52;;
64061;SDS011;50308;47.438;-1.528;2023-08-24T07:42:47;15.85;;;9.60;;
64061;SDS011;50308;47.438;-1.528;2023-08-24T07:45:18;18.90;;;9.55;;
64061;SDS011;50308;47.438;-1.528;2023-08-24T07:47:44;19.95;;;9.45;;
64061;SDS011;50308;47.438;-1.528;2023-08-24T07:50:09;16.77;;;9.43;;
64061;SDS011;50308;47.438;-1.528;2023-08-24T07:52:38;17.98;;;9.73;;
64061;SDS011;50308;47.438;-1.528;2023-08-24T07:55:05;17.30;;;9.30;;
64061;SDS011;50308;47.438;-1.528;2023-08-24T07:57:32;14.13;;;9.68;;
64061;SDS011;50308;47.438;-1.528;2023-08-24T07:59:59;20.42;;;10.13;;
64061;SDS011;50308;47.438;-1.528;2023-08-24T08:02:25;16.30;;;9.38;;
64061;SDS011;50308;47.438;-1.528;2023-08-24T08:04:50;17.55;;;9.80;;
64061;SDS011;50308;47.438;-1.528;2023-08-24T08:07:17;15.65;;;9.60;;
64061;SDS011;50308;47.438;-1.528;2023-08-24T08:09:42;15.45;;;9.40;;
64061;SDS011;50308;47.438;-1.528;2023-08-24T08:12:08;19.88;;;10.15;;
64061;SDS011;50308;47.438;-1.528;2023-08-24T08:14:34;17.20;;;9.43;;
64061;SDS011;50308;47.438;-1.528;2023-08-24T08:16:59;14.77;;;8.88;;
64061;SDS011;50308;47.438;-1.528;2023-08-24T08:19:25;17.60;;;8.60;;
64061;SDS011;50308;47.438;-1.528;2023-08-24T08:21:52;14.35;;;7.65;;
64061;SDS011;50308;47.438;-1.528;2023-08-24T08:24:18;17.75;;;9.38;;
64061;SDS011;50308;47.438;-1.528;2023-08-24T08:26:44;13.50;;;8.32;;
64061;SDS011;50308;47.438;-1.528;2023-08-24T08:29:10;17.88;;;9.50;;
64061;SDS011;50308;47.438;-1.528;2023-08-24T08:31:35;15.30;;;8.32;;
64061;SDS011;50308;47.438;-1.528;2023-08-24T08:34:02;15.40;;;8.55;;
64061;SDS011;50308;47.438;-1.528;2023-08-24T08:36:30;14.90;;;9.68;;
64061;SDS011;50308;47.438;-1.528;2023-08-24T08:38:59;19.70;;;9.65;;
64061;SDS011;50308;47.438;-1.528;2023-08-24T08:41:26;17.00;;;9.60;;
64061;SDS011;50308;47.438;-1.528;2023-08-24T08:43:55;21.23;;;10.02;;
64061;SDS011;50308;47.438;-1.528;2023-08-24T08:46:21;19.00;;;10.25;;
64061;SDS011;50308;47.438;-1.528;2023-08-24T08:48:47;16.17;;;8.73;;
64061;SDS011;50308;47.438;-1.528;2023-08-24T08:51:15;14.32;;;8.95;;
64061;SDS011;50308;47.438;-1.528;2023-08-24T08:53:42;21.35;;;10.35;;
64061;SDS011;50308;47.438;-1.528;2023-08-24T08:56:08;19.55;;;10.52;;
64061;SDS011;50308;47.438;-1.528;2023-08-24T08:58:34;19.60;;;10.55;;
64061;SDS011;50308;47.438;-1.528;2023-08-24T09:01:02;21.38;;;10.70;;
64061;SDS011;50308;47.438;-1.528;2023-08-24T09:03:29;15.90;;;9.73;;
64061;SDS011;50308;47.438;-1.528;2023-08-24T09:05:57;20.17;;;11.35;;
64061;SDS011;50308;47.438;-1.528;2023-08-24T09:08:22;18.38;;;10.60;;
64061;SDS011;50308;47.438;-1.528;2023-08-24T09:10:51;15.48;;;10.55;;
64061;SDS011;50308;47.438;-1.528;2023-08-24T09:13:17;17.60;;;10.77;;
64061;SDS011;50308;47.438;-1.528;2023-08-24T09:15:42;20.98;;;11.30;;
64061;SDS011;50308;47.438;-1.528;2023-08-24T09:18:08;21.08;;;10.27;;
64061;SDS011;50308;47.438;-1.528;2023-08-24T09:20:34;16.05;;;9.75;;
64061;SDS011;50308;47.438;-1.528;2023-08-24T09:23:00;17.08;;;10.07;;
64061;SDS011;50308;47.438;-1.528;2023-08-24T09:25:25;17.70;;;10.60;;
64061;SDS011;50308;47.438;-1.528;2023-08-24T09:28:01;18.90;;;11.48;;
64061;SDS011;50308;47.438;-1.528;2023-08-24T09:30:31;17.95;;;12.43;;
64061;SDS011;50308;47.438;-1.528;2023-08-24T09:33:03;17.17;;;10.70;;
64061;SDS011;50308;47.438;-1.528;2023-08-24T09:35:34;17.02;;;10.20;;
64061;SDS011;50308;47.438;-1.528;2023-08-24T09:38:14;19.15;;;11.75;;
64061;SDS011;50308;47.438;-1.528;2023-08-24T09:40:44;16.67;;;10.85;;
64061;SDS011;50308;47.438;-1.528;2023-08-24T09:43:20;19.77;;;11.88;;
64061;SDS011;50308;47.438;-1.528;2023-08-24T09:45:53;23.13;;;11.93;;
64061;SDS011;50308;47.438;-1.528;2023-08-24T09:48:20;19.23;;;12.70;;
64061;SDS011;50308;47.438;-1.528;2023-08-24T09:50:48;21.10;;;12.48;;
64061;SDS011;50308;47.438;-1.528;2023-08-24T09:53:16;21.27;;;12.30;;
64061;SDS011;50308;47.438;-1.528;2023-08-24T09:56:04;19.48;;;11.82;;
64061;SDS011;50308;47.438;-1.528;2023-08-24T09:58:32;20.98;;;12.07;;
64061;SDS011;50308;47.438;-1.528;2023-08-24T10:00:59;22.27;;;12.38;;
64061;SDS011;50308;47.438;-1.528;2023-08-24T10:03:27;19.05;;;11.85;;
64061;SDS011;50308;47.438;-1.528;2023-08-24T10:05:54;23.30;;;13.30;;
64061;SDS011;50308;47.438;-1.528;2023-08-24T10:08:27;22.43;;;12.37;;
64061;SDS011;50308;47.438;-1.528;2023-08-24T10:10:55;17.70;;;11.23;;
64061;SDS011;50308;47.438;-1.528;2023-08-24T10:13:26;17.90;;;10.73;;
64061;SDS011;50308;47.438;-1.528;2023-08-24T10:16:15;18.52;;;10.85;;
64061;SDS011;50308;47.438;-1.528;2023-08-24T10:18:43;15.65;;;10.27;;
64061;SDS011;50308;47.438;-1.528;2023-08-24T10:21:09;16.70;;;11.43;;
64061;SDS011;50308;47.438;-1.528;2023-08-24T10:23:36;18.23;;;10.57;;
64061;SDS011;50308;47.438;-1.528;2023-08-24T10:26:03;16.25;;;10.88;;
64061;SDS011;50308;47.438;-1.528;2023-08-24T10:28:31;17.42;;;11.05;;
64061;SDS011;50308;47.438;-1.528;2023-08-24T10:30:58;12.93;;;9.10;;
64061;SDS011;50308;47.438;-1.528;2023-08-24T10:33:25;16.15;;;9.73;;
64061;SDS011;50308;47.438;-1.528;2023-08-24T10:35:52;15.23;;;9.60;;
64061;SDS011;50308;47.438;-1.528;2023-08-24T10:38:28;14.93;;;9.77;;
64061;SDS011;50308;47.438;-1.528;2023-08-24T10:40:55;19.52;;;10.43;;
64061;SDS011;50308;47.438;-1.528;2023-08-24T10:43:29;16.77;;;10.38;;
64061;SDS011;50308;47.438;-1.528;2023-08-24T10:48:29;12.82;;;9.45;;
64061;SDS011;50308;47.438;-1.528;2023-08-24T10:53:56;18.63;;;10.20;;
64061;SDS011;50308;47.438;-1.528;2023-08-24T10:56:30;13.10;;;8.70;;
64061;SDS011;50308;47.438;-1.528;2023-08-24T10:59:12;15.48;;;9.38;;
64061;SDS011;50308;47.438;-1.528;2023-08-24T11:01:39;14.18;;;9.02;;
64061;SDS011;50308;47.438;-1.528;2023-08-24T11:04:06;16.40;;;9.98;;
64061;SDS011;50308;47.438;-1.528;2023-08-24T11:06:49;16.77;;;9.95;;
64061;SDS011;50308;47.438;-1.528;2023-08-24T11:09:19;14.68;;;10.18;;
64061;SDS011;50308;47.438;-1.528;2023-08-24T11:11:58;14.98;;;9.70;;
64061;SDS011;50308;47.438;-1.528;2023-08-24T11:14:25;13.60;;;9.50;;
64061;SDS011;50308;47.438;-1.528;2023-08-24T11:16:52;12.80;;;8.75;;
64061;SDS011;50308;47.438;-1.528;2023-08-24T11:19:18;13.57;;;9.70;;
64061;SDS011;50308;47.438;-1.528;2023-08-24T11:21:45;15.20;;;10.50;;
64061;SDS011;50308;47.438;-1.528;2023-08-24T11:24:12;14.38;;;9.63;;
64061;SDS011;50308;47.438;-1.528;2023-08-24T11:26:42;13.15;;;9.15;;
64061;SDS011;50308;47.438;-1.528;2023-08-24T11:29:10;11.43;;;8.70;;
64061;SDS011;50308;47.438;-1.528;2023-08-24T11:31:36;13.70;;;9.93;;
64061;SDS011;50308;47.438;-1.528;2023-08-24T11:34:03;15.07;;;10.13;;
64061;SDS011;50308;47.438;-1.528;2023-08-24T11:36:30;16.02;;;9.38;;
64061;SDS011;50308;47.438;-1.528;2023-08-24T11:38:57;14.10;;;9.13;;
64061;SDS011;50308;47.438;-1.528;2023-08-24T11:41:24;14.50;;;9.00;;
64061;SDS011;50308;47.438;-1.528;2023-08-24T11:43:58;13.60;;;9.07;;
64061;SDS011;50308;47.438;-1.528;2023-08-24T11:46:24;11.18;;;8.23;;
64061;SDS011;50308;47.438;-1.528;2023-08-24T11:48:50;15.57;;;9.65;;
64061;SDS011;50308;47.438;-1.528;2023-08-24T11:51:16;15.80;;;9.13;;
64061;SDS011;50308;47.438;-1.528;2023-08-24T11:53:43;14.82;;;9.05;;
64061;SDS011;50308;47.438;-1.528;2023-08-24T11:56:13;15.63;;;9.55;;
64061;SDS011;50308;47.438;-1.528;2023-08-24T11:58:39;13.48;;;8.60;;
64061;SDS011;50308;47.438;-1.528;2023-08-24T12:01:06;10.68;;;8.60;;
64061;SDS011;50308;47.438;-1.528;2023-08-24T12:03:34;11.63;;;8.52;;
64061;SDS011;50308;47.438;-1.528;2023-08-24T12:06:01;10.10;;;7.68;;
64061;SDS011;50308;47.438;-1.528;2023-08-24T12:08:29;12.15;;;8.00;;
64061;SDS011;50308;47.438;-1.528;2023-08-24T12:10:55;12.55;;;8.45;;
64061;SDS011;50308;47.438;-1.528;2023-08-24T12:13:21;9.65;;;7.75;;
64061;SDS011;50308;47.438;-1.528;2023-08-24T12:15:47;10.88;;;7.80;;
64061;SDS011;50308;47.438;-1.528;2023-08-24T12:18:15;12.15;;;8.30;;
64061;SDS011;50308;47.438;-1.528;2023-08-24T12:20:41;12.57;;;8.98;;
64061;SDS011;50308;47.438;-1.528;2023-08-24T12:23:07;12.07;;;8.15;;
64061;SDS011;50308;47.438;-1.528;2023-08-24T12:25:37;10.48;;;8.10;;
64061;SDS011;50308;47.438;-1.528;2023-08-24T12:28:08;13.18;;;8.32;;
64061;SDS011;50308;47.438;-1.528;2023-08-24T12:33:23;13.18;;;7.55;;
64061;SDS011;50308;47.438;-1.528;2023-08-24T12:35:53;12.68;;;7.82;;
64061;SDS011;50308;47.438;-1.528;2023-08-24T12:38:20;10.65;;;7.78;;
64061;SDS011;50308;47.438;-1.528;2023-08-24T12:40:47;11.25;;;7.57;;
64061;SDS011;50308;47.438;-1.528;2023-08-24T12:43:13;11.18;;;7.50;;
64061;SDS011;50308;47.438;-1.528;2023-08-24T12:45:41;11.10;;;7.55;;
64061;SDS011;50308;47.438;-1.528;2023-08-24T12:48:07;10.35;;;7.10;;
64061;SDS011;50308;47.438;-1.528;2023-08-24T12:50:34;10.65;;;7.03;;
64061;SDS011;50308;47.438;-1.528;2023-08-24T12:53:00;9.60;;;6.53;;
64061;SDS011;50308;47.438;-1.528;2023-08-24T12:55:26;10.77;;;6.88;;
64061;SDS011;50308;47.438;-1.528;2023-08-24T12:57:52;11.48;;;6.78;;
64061;SDS011;50308;47.438;-1.528;2023-08-24T13:00:18;9.48;;;6.68;;
64061;SDS011;50308;47.438;-1.528;2023-08-24T13:02:44;7.90;;;6.03;;
64061;SDS011;50308;47.438;-1.528;2023-08-24T13:05:10;12.43;;;7.68;;
64061;SDS011;50308;47.438;-1.528;2023-08-24T13:07:36;8.85;;;6.25;;
64061;SDS011;50308;47.438;-1.528;2023-08-24T13:10:03;8.70;;;6.53;;
64061;SDS011;50308;47.438;-1.528;2023-08-24T13:12:29;9.68;;;6.45;;
64061;SDS011;50308;47.438;-1.528;2023-08-24T13:14:55;7.90;;;6.15;;
64061;SDS011;50308;47.438;-1.528;2023-08-24T13:17:21;7.43;;;5.88;;
64061;SDS011;50308;47.438;-1.528;2023-08-24T13:19:46;9.23;;;5.70;;
64061;SDS011;50308;47.438;-1.528;2023-08-24T13:22:14;8.25;;;6.03;;
64061;SDS011;50308;47.438;-1.528;2023-08-24T13:24:40;9.30;;;5.45;;
64061;SDS011;50308;47.438;-1.528;2023-08-24T13:27:08;8.15;;;6.18;;
64061;SDS011;50308;47.438;-1.528;2023-08-24T13:29:38;11.32;;;6.53;;
64061;SDS011;50308;47.438;-1.528;2023-08-24T13:32:05;8.75;;;5.78;;
64061;SDS011;50308;47.438;-1.528;2023-08-24T13:34:31;8.52;;;6.13;;
64061;SDS011;50308;47.438;-1.528;2023-08-24T13:36:57;6.50;;;5.30;;
64061;SDS011;50308;47.438;-1.528;2023-08-24T13:39:25;11.00;;;5.32;;
64061;SDS011;50308;47.438;-1.528;2023-08-24T13:41:53;7.57;;;5.72;;
64061;SDS011;50308;47.438;-1.528;2023-08-24T13:44:19;7.43;;;5.30;;
64061;SDS011;50308;47.438;-1.528;2023-08-24T13:46:45;7.15;;;5.57;;
64061;SDS011;50308;47.438;-1.528;2023-08-24T13:49:11;9.63;;;5.72;;
64061;SDS011;50308;47.438;-1.528;2023-08-24T13:51:37;8.65;;;5.38;;
64061;SDS011;50308;47.438;-1.528;2023-08-24T13:54:02;9.15;;;5.32;;
64061;SDS011;50308;47.438;-1.528;2023-08-24T13:56:37;8.02;;;5.47;;
64061;SDS011;50308;47.438;-1.528;2023-08-24T13:59:03;9.27;;;5.68;;
64061;SDS011;50308;47.438;-1.528;2023-08-24T14:01:28;6.85;;;5.70;;
64061;SDS011;50308;47.438;-1.528;2023-08-24T14:03:54;8.52;;;5.65;;
64061;SDS011;50308;47.438;-1.528;2023-08-24T14:06:20;7.53;;;5.60;;
64061;SDS011;50308;47.438;-1.528;2023-08-24T14:08:46;9.00;;;5.38;;
64061;SDS011;50308;47.438;-1.528;2023-08-24T14:11:11;9.25;;;5.78;;
64061;SDS011;50308;47.438;-1.528;2023-08-24T14:13:38;8.40;;;5.38;;
64061;SDS011;50308;47.438;-1.528;2023-08-24T14:16:03;7.70;;;5.28;;
64061;SDS011;50308;47.438;-1.528;2023-08-24T14:18:29;9.98;;;5.60;;
64061;SDS011;50308;47.438;-1.528;2023-08-24T14:20:55;8.45;;;5.63;;
64061;SDS011;50308;47.438;-1.528;2023-08-24T14:23:21;10.23;;;6.10;;
64061;SDS011;50308;47.438;-1.528;2023-08-24T14:25:47;7.85;;;5.85;;
64061;SDS011;50308;47.438;-1.528;2023-08-24T14:28:13;7.38;;;5.82;;
64061;SDS011;50308;47.438;-1.528;2023-08-24T14:30:39;12.15;;;6.13;;
64061;SDS011;50308;47.438;-1.528;2023-08-24T14:33:05;9.57;;;5.20;;
64061;SDS011;50308;47.438;-1.528;2023-08-24T14:35:30;8.45;;;6.43;;
64061;SDS011;50308;47.438;-1.528;2023-08-24T14:37:57;9.23;;;5.72;;